Time;durP1;ratioP1;P1;durP2;ratioP2;P2;SDS_P1;SDS_P2;PMS_P1;PMS_P2;Temp;Humidity;BMP_temperature;BMP_pressure;BME280_temperature;BME280_humidity;BME280_pressure;Samples;Min_cycle;Max_cycle;Signal;HPM_P1;HPM_P2
2022/03/26 00:01:49;;;;;;;57.72;24.15;;;5.00;70.10;;;;;;5028751;28;20220;-88
2022/03/26 00:04:15;;;;;;;52.42;24.50;;;5.10;69.30;;;;;;5038871;28;20025;-87
2022/03/26 00:06:41;;;;;;;52.33;24.25;;;5.10;69.30;;;;;;5028285;28;20026;-88
2022/03/26 00:09:07;;;;;;;60.40;25.45;;;5.00;69.80;;;;;;5040873;28;20111;-88
2022/03/26 00:11:32;;;;;;;55.67;22.55;;;5.00;70.50;;;;;;5049334;28;20108;-89
2022/03/26 00:13:58;;;;;;;56.42;22.55;;;4.80;70.10;;;;;;5030105;28;20584;-88
2022/03/26 00:16:24;;;;;;;56.55;22.58;;;5.00;70.60;;;;;;5028576;28;20060;-88
2022/03/26 00:18:49;;;;;;;54.30;22.90;;;4.90;70.20;;;;;;5033434;28;20022;-88
2022/03/26 00:21:15;;;;;;;55.60;22.85;;;4.70;71.40;;;;;;5027736;28;20053;-88
2022/03/26 00:23:41;;;;;;;49.10;23.15;;;4.60;72.40;;;;;;5036629;28;20025;-87
2022/03/26 00:26:10;;;;;;;53.85;22.80;;;4.60;72.20;;;;;;5021433;28;20059;-88
2022/03/26 00:28:37;;;;;;;47.28;22.02;;;4.40;73.90;;;;;;5027188;28;20029;-89
2022/03/26 00:31:04;;;;;;;52.85;22.58;;;4.40;72.30;;;;;;5019158;28;20026;-88
2022/03/26 00:33:30;;;;;;;54.67;23.05;;;4.20;74.20;;;;;;5017211;28;20499;-90
2022/03/26 00:35:57;;;;;;;53.58;23.40;;;4.20;75.50;;;;;;5025774;28;20065;-89
2022/03/26 00:38:22;;;;;;;48.10;20.65;;;4.10;76.30;;;;;;5041167;28;20029;-88
2022/03/26 00:40:48;;;;;;;58.15;25.70;;;4.30;74.90;;;;;;5052288;28;20071;-88
2022/03/26 00:43:14;;;;;;;46.08;23.10;;;4.20;75.50;;;;;;5041998;28;20503;-88
2022/03/26 00:45:40;;;;;;;52.65;24.80;;;4.60;73.90;;;;;;5033208;28;20025;-91
2022/03/26 00:48:06;;;;;;;51.92;23.15;;;4.50;74.00;;;;;;5033116;28;20026;-89
2022/03/26 00:50:32;;;;;;;51.33;24.10;;;4.60;73.80;;;;;;5025278;28;20025;-90
2022/03/26 00:52:58;;;;;;;55.42;21.83;;;4.70;73.00;;;;;;5032210;28;20037;-88
2022/03/26 00:55:24;;;;;;;59.17;22.60;;;4.70;73.10;;;;;;5051140;28;20069;-88
2022/03/26 00:57:49;;;;;;;51.13;23.27;;;4.70;73.10;;;;;;5041983;28;20036;-88
2022/03/26 01:00:16;;;;;;;52.55;22.05;;;4.70;72.90;;;;;;5047757;28;20029;-90
2022/03/26 01:02:42;;;;;;;56.08;24.75;;;4.70;72.50;;;;;;5049147;28;20108;-89
2022/03/26 01:05:08;;;;;;;50.92;22.02;;;4.70;72.80;;;;;;5040645;28;20107;-90
2022/03/26 01:07:33;;;;;;;48.53;21.33;;;4.80;72.00;;;;;;5022422;28;20500;-89
2022/03/26 01:09:59;;;;;;;54.53;24.77;;;4.90;72.10;;;;;;5012851;28;20038;-89
2022/03/26 01:12:25;;;;;;;51.58;24.15;;;4.90;71.80;;;;;;5038154;28;20049;-90
2022/03/26 01:14:52;;;;;;;54.15;22.98;;;4.70;72.10;;;;;;5045478;28;20052;-88
2022/03/26 01:17:19;;;;;;;49.08;21.48;;;4.70;71.90;;;;;;5046137;28;20350;-88
2022/03/26 01:19:45;;;;;;;53.15;20.77;;;4.70;72.20;;;;;;5036434;28;20104;-88
2022/03/26 01:22:11;;;;;;;51.25;23.58;;;4.70;72.60;;;;;;5043538;28;20437;-89
2022/03/26 01:24:37;;;;;;;53.53;22.77;;;4.60;73.00;;;;;;5035469;28;20099;-88
2022/03/26 01:27:03;;;;;;;51.50;23.42;;;4.60;71.90;;;;;;5030487;28;20041;-89
2022/03/26 01:29:29;;;;;;;55.25;22.20;;;4.50;73.50;;;;;;5040959;28;20110;-89
2022/03/26 01:31:55;;;;;;;59.20;25.67;;;4.40;74.20;;;;;;5038362;28;20025;-89
2022/03/26 01:34:24;;;;;;;51.08;21.83;;;4.40;75.20;;;;;;5032432;28;20025;-89
2022/03/26 01:36:50;;;;;;;52.83;24.05;;;4.40;75.20;;;;;;5038259;28;20030;-88
2022/03/26 01:39:17;;;;;;;47.58;22.67;;;4.40;74.40;;;;;;5034296;28;20524;-88
2022/03/26 01:41:43;;;;;;;56.63;24.38;;;4.20;75.80;;;;;;5035110;28;20026;-91
2022/03/26 01:44:13;;;;;;;47.78;21.05;;;4.40;75.20;;;;;;5043461;28;20047;-89
2022/03/26 01:46:53;;;;;;;55.97;23.50;;;4.30;74.80;;;;;;5042607;28;20112;-89
2022/03/26 01:49:19;;;;;;;49.53;22.95;;;4.40;74.60;;;;;;5032091;28;20175;-89
2022/03/26 01:51:45;;;;;;;56.95;24.23;;;4.40;75.10;;;;;;5019482;28;20029;-88
2022/03/26 01:54:12;;;;;;;49.22;20.85;;;4.30;75.20;;;;;;5023913;28;20022;-88
2022/03/26 01:56:39;;;;;;;68.63;22.67;;;4.40;74.80;;;;;;5035211;28;20033;-91
2022/03/26 01:59:06;;;;;;;56.35;25.48;;;4.30;75.60;;;;;;5027075;28;20254;-89
2022/03/26 02:01:33;;;;;;;54.40;22.52;;;4.10;76.60;;;;;;5033417;28;20041;-89
2022/03/26 02:04:03;;;;;;;47.92;22.83;;;4.10;76.20;;;;;;5024026;28;20026;-84
2022/03/26 02:06:34;;;;;;;54.97;24.77;;;4.10;76.30;;;;;;5023036;28;20037;-85
2022/03/26 02:09:05;;;;;;;51.88;22.42;;;4.20;76.30;;;;;;5035954;28;20250;-85
2022/03/26 02:11:32;;;;;;;50.35;21.90;;;4.30;76.20;;;;;;5029197;28;20103;-84
2022/03/26 02:13:58;;;;;;;51.25;23.38;;;4.20;77.30;;;;;;5042044;28;20028;-83
2022/03/26 02:16:25;;;;;;;50.22;25.10;;;4.20;76.70;;;;;;5041182;28;20032;-83
2022/03/26 02:18:52;;;;;;;53.25;24.58;;;4.20;77.20;;;;;;5040772;28;20032;-82
2022/03/26 02:21:19;;;;;;;52.88;24.00;;;4.20;76.90;;;;;;5038760;28;20389;-83
2022/03/26 02:23:47;;;;;;;53.17;22.98;;;4.10;76.90;;;;;;5035794;28;20049;-89
2022/03/26 02:26:17;;;;;;;52.28;24.42;;;4.30;76.40;;;;;;5033860;28;20029;-89
2022/03/26 02:28:44;;;;;;;47.65;23.05;;;4.10;77.20;;;;;;5034904;28;20029;-88
2022/03/26 02:31:11;;;;;;;48.30;21.45;;;4.10;76.80;;;;;;5045621;28;20033;-91
2022/03/26 02:33:37;;;;;;;49.10;22.63;;;4.10;76.80;;;;;;5040664;28;20017;-89
2022/03/26 02:36:04;;;;;;;57.35;23.00;;;4.00;77.70;;;;;;5036793;28;20039;-88
2022/03/26 02:38:30;;;;;;;49.85;22.23;;;4.00;77.60;;;;;;5039437;28;20033;-89
2022/03/26 02:40:56;;;;;;;53.17;23.13;;;4.30;76.70;;;;;;5036096;28;20784;-89
2022/03/26 02:43:21;;;;;;;53.30;22.75;;;4.10;77.50;;;;;;5042160;28;20078;-89
2022/03/26 02:45:47;;;;;;;46.30;22.30;;;4.10;77.40;;;;;;5038677;28;20090;-90
2022/03/26 02:48:14;;;;;;;49.47;20.23;;;4.10;78.30;;;;;;5042615;28;20033;-88
2022/03/26 02:50:43;;;;;;;53.95;21.05;;;3.90;78.30;;;;;;5034318;28;20021;-88
2022/03/26 02:53:10;;;;;;;53.55;22.73;;;3.90;79.30;;;;;;5037975;28;20026;-89
2022/03/26 02:55:35;;;;;;;54.85;21.80;;;3.90;79.20;;;;;;5039939;28;20357;-88
2022/03/26 02:58:02;;;;;;;52.42;21.27;;;3.70;79.60;;;;;;5040326;28;20037;-89
2022/03/26 03:00:28;;;;;;;41.45;20.83;;;3.80;79.40;;;;;;5069366;28;20460;-88
2022/03/26 03:02:54;;;;;;;51.10;23.55;;;3.80;79.40;;;;;;5042768;28;20179;-87
2022/03/26 03:05:20;;;;;;;44.30;21.55;;;3.70;80.30;;;;;;5038287;28;20055;-89
2022/03/26 03:07:45;;;;;;;45.95;22.55;;;3.60;81.10;;;;;;5037924;28;20109;-89
2022/03/26 03:10:15;;;;;;;49.75;21.85;;;3.60;81.30;;;;;;5044890;28;20036;-89
2022/03/26 03:12:42;;;;;;;46.63;21.53;;;3.70;81.20;;;;;;5039929;28;20494;-89
2022/03/26 03:15:08;;;;;;;48.35;21.35;;;3.50;81.90;;;;;;5037323;28;20305;-89
2022/03/26 03:17:38;;;;;;;38.85;18.50;;;3.50;81.50;;;;;;5040850;28;20051;-88
2022/03/26 03:20:08;;;;;;;51.05;24.75;;;3.60;81.50;;;;;;5046878;28;20033;-89
2022/03/26 03:22:34;;;;;;;48.63;23.13;;;3.60;81.00;;;;;;5037765;28;20037;-88
2022/03/26 03:25:00;;;;;;;60.10;22.65;;;3.60;80.70;;;;;;5037917;28;20056;-87
2022/03/26 03:27:26;;;;;;;46.10;18.73;;;3.50;82.00;;;;;;5036031;28;20037;-89
2022/03/26 03:29:52;;;;;;;45.55;19.08;;;3.50;82.20;;;;;;5038069;28;20139;-88
2022/03/26 03:32:18;;;;;;;44.08;20.70;;;3.70;80.40;;;;;;5039293;28;20033;-88
2022/03/26 03:34:44;;;;;;;49.50;21.73;;;3.70;80.50;;;;;;5029487;28;20053;-87
2022/03/26 03:37:09;;;;;;;49.35;23.27;;;3.70;80.60;;;;;;5029980;28;20025;-89
2022/03/26 03:39:35;;;;;;;49.75;22.27;;;3.50;81.50;;;;;;5035754;28;20559;-89
2022/03/26 03:42:01;;;;;;;51.10;23.15;;;3.50;81.00;;;;;;5045465;28;20068;-89
2022/03/26 03:44:26;;;;;;;42.65;22.00;;;3.50;82.70;;;;;;5040684;28;20342;-89
2022/03/26 03:46:52;;;;;;;51.70;20.13;;;3.60;82.20;;;;;;5030072;28;20132;-89
2022/03/26 03:49:18;;;;;;;48.00;22.15;;;3.60;81.50;;;;;;5029856;28;20034;-90
2022/03/26 03:51:44;;;;;;;51.78;19.15;;;3.60;81.50;;;;;;5024264;28;20528;-89
2022/03/26 03:54:10;;;;;;;51.15;19.10;;;3.60;81.40;;;;;;5040647;28;20185;-89
2022/03/26 03:56:36;;;;;;;43.15;19.60;;;3.70;81.10;;;;;;5031691;28;20022;-89
2022/03/26 03:59:02;;;;;;;53.47;22.33;;;3.70;81.00;;;;;;5042233;28;20231;-89
2022/03/26 04:01:27;;;;;;;49.58;19.92;;;3.60;80.90;;;;;;5041283;28;20047;-89
2022/03/26 04:03:53;;;;;;;46.00;20.85;;;3.60;81.30;;;;;;5049707;28;20475;-90
2022/03/26 04:06:19;;;;;;;49.22;24.38;;;3.50;82.00;;;;;;5036169;28;20040;-87
2022/03/26 04:08:44;;;;;;;44.15;21.48;;;3.50;82.20;;;;;;5037910;28;20385;-89
2022/03/26 04:11:10;;;;;;;43.35;21.65;;;3.40;81.80;;;;;;5027639;28;20037;-91
2022/03/26 04:13:36;;;;;;;44.03;18.75;;;3.30;82.30;;;;;;5040338;28;20036;-90
2022/03/26 04:16:02;;;;;;;49.03;19.52;;;3.20;83.60;;;;;;5044268;28;20033;-89
2022/03/26 04:18:28;;;;;;;51.05;21.00;;;3.20;84.30;;;;;;5032837;28;20064;-88
2022/03/26 04:20:53;;;;;;;52.63;20.17;;;3.00;85.10;;;;;;5016454;28;20065;-89
2022/03/26 04:23:20;;;;;;;46.08;19.92;;;3.00;85.50;;;;;;5025690;28;20041;-90
2022/03/26 04:25:46;;;;;;;50.40;22.33;;;3.00;85.60;;;;;;5014526;28;20046;-90
2022/03/26 04:28:12;;;;;;;48.22;20.27;;;2.90;85.50;;;;;;5021181;28;20033;-89
2022/03/26 04:30:38;;;;;;;44.40;19.67;;;2.70;85.60;;;;;;5025783;28;20108;-89
2022/03/26 04:33:04;;;;;;;48.95;20.98;;;2.60;88.40;;;;;;5036304;28;20565;-89
2022/03/26 04:35:30;;;;;;;43.65;20.40;;;2.50;87.90;;;;;;5051502;28;20516;-89
2022/03/26 04:37:56;;;;;;;51.53;21.27;;;2.50;89.20;;;;;;5025028;28;20037;-91
2022/03/26 04:40:24;;;;;;;59.13;23.27;;;2.40;90.20;;;;;;5029670;28;20108;-90
2022/03/26 04:42:49;;;;;;;53.05;22.67;;;2.60;89.80;;;;;;5032902;28;20034;-90
2022/03/26 04:45:15;;;;;;;49.08;19.58;;;2.60;89.90;;;;;;5021040;28;20271;-90
2022/03/26 04:47:41;;;;;;;46.63;19.05;;;2.60;89.20;;;;;;5045640;28;20054;-88
2022/03/26 04:50:08;;;;;;;59.05;22.52;;;2.60;88.80;;;;;;5028751;28;20030;-90
2022/03/26 04:52:34;;;;;;;46.53;20.15;;;2.70;88.00;;;;;;5020330;28;20064;-90
2022/03/26 04:54:59;;;;;;;47.58;19.13;;;2.50;88.90;;;;;;5043023;28;20351;-89
2022/03/26 04:57:26;;;;;;;44.78;19.20;;;2.50;90.30;;;;;;5039646;28;20060;-90
2022/03/26 04:59:51;;;;;;;52.83;22.58;;;2.40;90.00;;;;;;5032529;28;20061;-88
2022/03/26 05:02:17;;;;;;;48.15;22.63;;;2.30;90.20;;;;;;5042309;28;20083;-90
2022/03/26 05:04:43;;;;;;;54.50;22.70;;;2.30;90.50;;;;;;5038017;28;20904;-88
2022/03/26 05:09:53;;;;;;;43.08;18.63;;;2.10;90.40;;;;;;5037363;28;20060;-90
2022/03/26 05:12:19;;;;;;;47.45;20.55;;;2.00;91.40;;;;;;5031970;28;20108;-89
2022/03/26 05:14:45;;;;;;;50.72;22.50;;;2.00;91.50;;;;;;5033950;28;20037;-91
2022/03/26 05:17:11;;;;;;;47.40;20.63;;;2.20;91.20;;;;;;5032293;28;20544;-83
2022/03/26 05:19:37;;;;;;;47.53;19.70;;;2.20;90.80;;;;;;5038912;28;20115;-83
2022/03/26 05:22:04;;;;;;;43.70;19.38;;;2.30;90.70;;;;;;5054185;28;20037;-90
2022/03/26 05:24:30;;;;;;;44.65;20.52;;;2.30;91.00;;;;;;5037308;28;20124;-83
2022/03/26 05:26:55;;;;;;;45.30;18.65;;;2.40;90.00;;;;;;5046619;28;20041;-83
2022/03/26 05:29:21;;;;;;;46.80;19.67;;;2.40;90.50;;;;;;5037268;28;20033;-89
2022/03/26 05:31:47;;;;;;;47.65;20.83;;;2.40;90.50;;;;;;5038924;28;20040;-87
2022/03/26 05:34:13;;;;;;;46.40;20.55;;;2.40;91.00;;;;;;5025999;28;20026;-89
2022/03/26 05:36:39;;;;;;;44.53;21.38;;;2.50;90.40;;;;;;5011936;28;20041;-87
2022/03/26 05:39:05;;;;;;;46.65;19.40;;;2.50;90.30;;;;;;5015706;28;20030;-88
2022/03/26 05:41:31;;;;;;;49.65;21.35;;;2.40;90.70;;;;;;5045227;28;20029;-88
2022/03/26 05:43:56;;;;;;;45.47;19.23;;;2.50;90.00;;;;;;5048563;28;20476;-89
2022/03/26 05:46:22;;;;;;;46.28;19.98;;;2.50;90.50;;;;;;5040133;28;20037;-88
2022/03/26 05:48:48;;;;;;;45.72;20.15;;;2.60;90.30;;;;;;5050683;28;20026;-89
2022/03/26 05:51:13;;;;;;;45.38;20.42;;;2.70;89.60;;;;;;5042324;28;20668;-91
2022/03/26 05:53:40;;;;;;;47.95;21.40;;;2.70;88.90;;;;;;5018642;28;20026;-89
2022/03/26 05:56:06;;;;;;;42.28;17.42;;;2.80;90.00;;;;;;5015218;28;20085;-90
2022/03/26 05:58:32;;;;;;;51.72;21.83;;;3.00;87.80;;;;;;5013172;28;20034;-88
2022/03/26 06:00:58;;;;;;;47.28;19.40;;;3.10;86.90;;;;;;5068008;28;20043;-88
2022/03/26 06:03:24;;;;;;;48.85;20.90;;;3.20;86.60;;;;;;5044962;28;20038;-88
2022/03/26 06:05:49;;;;;;;47.25;21.52;;;3.20;86.80;;;;;;5012269;28;20084;-88
2022/03/26 06:08:15;;;;;;;44.83;17.27;;;3.30;86.40;;;;;;5029576;28;20044;-88
2022/03/26 06:10:41;;;;;;;47.53;19.35;;;3.40;84.80;;;;;;5042257;28;20030;-89
2022/03/26 06:13:07;;;;;;;47.00;20.42;;;3.40;84.90;;;;;;5040029;28;20025;-89
2022/03/26 06:15:36;;;;;;;42.65;21.35;;;3.50;83.90;;;;;;5039389;28;20505;-88
2022/03/26 06:18:03;;;;;;;47.05;18.92;;;3.50;84.10;;;;;;5035456;28;20071;-90
2022/03/26 06:20:29;;;;;;;47.97;17.98;;;3.50;83.90;;;;;;5031629;28;20051;-89
2022/03/26 06:22:55;;;;;;;48.33;20.50;;;3.60;84.00;;;;;;5031620;28;20037;-89
2022/03/26 06:25:21;;;;;;;49.22;22.73;;;3.60;83.40;;;;;;5028610;28;20053;-89
2022/03/26 06:27:47;;;;;;;51.67;20.90;;;3.60;84.00;;;;;;5014958;28;20543;-88
2022/03/26 06:30:13;;;;;;;48.55;21.63;;;3.60;82.70;;;;;;5010042;28;20025;-90
2022/03/26 06:32:39;;;;;;;47.40;18.75;;;3.70;82.80;;;;;;4995224;28;20489;-87
2022/03/26 06:35:05;;;;;;;49.00;20.85;;;3.80;82.20;;;;;;5029915;28;20025;-89
2022/03/26 06:37:31;;;;;;;46.13;20.17;;;3.90;82.00;;;;;;5029650;28;20120;-86
2022/03/26 06:39:58;;;;;;;43.83;18.52;;;4.00;82.60;;;;;;5043464;28;20498;-88
2022/03/26 06:42:24;;;;;;;51.72;20.95;;;4.00;80.70;;;;;;5037226;28;20040;-89
2022/03/26 06:44:50;;;;;;;45.90;18.52;;;4.10;80.80;;;;;;5032631;28;20029;-88
2022/03/26 06:47:15;;;;;;;45.00;17.63;;;4.20;80.20;;;;;;5032036;28;20116;-88
2022/03/26 06:49:41;;;;;;;43.65;19.85;;;4.20;80.00;;;;;;5033517;28;20037;-88
2022/03/26 06:52:08;;;;;;;43.00;18.85;;;4.10;79.90;;;;;;5013159;28;20058;-88
2022/03/26 06:54:33;;;;;;;46.45;20.60;;;4.20;80.20;;;;;;5016165;28;20116;-90
2022/03/26 06:56:59;;;;;;;41.25;17.85;;;4.20;80.50;;;;;;5020558;28;20094;-89
2022/03/26 06:59:25;;;;;;;51.13;21.88;;;4.40;79.10;;;;;;5020713;28;20480;-90
2022/03/26 07:01:51;;;;;;;53.42;20.92;;;4.40;79.90;;;;;;5014384;28;20041;-88
2022/03/26 07:04:17;;;;;;;44.25;18.40;;;4.50;80.10;;;;;;5030424;28;20041;-88
2022/03/26 07:06:43;;;;;;;47.45;20.63;;;4.60;77.40;;;;;;5038344;28;20027;-89
2022/03/26 07:09:09;;;;;;;46.63;18.63;;;4.70;78.40;;;;;;5030895;28;20033;-88
2022/03/26 07:11:34;;;;;;;43.53;20.85;;;4.80;78.10;;;;;;5028007;28;20026;-88
2022/03/26 07:14:00;;;;;;;45.97;21.05;;;4.90;78.50;;;;;;5049547;28;20029;-89
2022/03/26 07:16:25;;;;;;;39.95;19.58;;;5.00;77.40;;;;;;5049562;28;20071;-89
2022/03/26 07:18:51;;;;;;;45.67;18.85;;;5.00;77.20;;;;;;5038375;28;20060;-88
2022/03/26 07:21:17;;;;;;;51.22;18.65;;;5.10;77.30;;;;;;5030254;28;20245;-87
2022/03/26 07:23:42;;;;;;;56.15;22.75;;;5.20;76.50;;;;;;5020750;28;20048;-87
2022/03/26 07:26:08;;;;;;;45.00;19.83;;;5.30;77.40;;;;;;5014069;28;20030;-87
2022/03/26 07:28:34;;;;;;;44.05;18.95;;;5.40;76.40;;;;;;5027966;28;20357;-88
2022/03/26 07:30:59;;;;;;;47.65;20.77;;;5.50;76.00;;;;;;5042728;28;20025;-89
2022/03/26 07:33:25;;;;;;;42.17;19.30;;;5.60;75.70;;;;;;5033293;28;20038;-88
2022/03/26 07:35:51;;;;;;;49.35;22.60;;;5.70;73.80;;;;;;5023823;28;20026;-87
2022/03/26 07:38:16;;;;;;;50.45;24.20;;;5.80;74.10;;;;;;5028899;28;20025;-86
2022/03/26 07:40:42;;;;;;;64.63;24.05;;;5.80;73.50;;;;;;5027445;28;20056;-87
2022/03/26 07:43:08;;;;;;;51.13;21.17;;;5.80;74.70;;;;;;5027231;28;20026;-87
2022/03/26 07:45:35;;;;;;;48.53;24.10;;;5.80;73.80;;;;;;5020601;28;20033;-87
2022/03/26 07:48:01;;;;;;;46.03;18.70;;;5.80;74.00;;;;;;5027953;28;20052;-86
2022/03/26 07:50:27;;;;;;;51.72;22.38;;;5.90;74.60;;;;;;5031688;28;20364;-86
2022/03/26 07:52:53;;;;;;;49.42;21.50;;;6.00;75.30;;;;;;5030772;28;20485;-87
2022/03/26 07:55:19;;;;;;;45.90;20.48;;;6.40;73.80;;;;;;5030897;28;20029;-85
2022/03/26 07:57:45;;;;;;;48.05;21.63;;;6.50;72.50;;;;;;5028868;28;20423;-86
2022/03/26 08:00:11;;;;;;;45.22;20.17;;;6.70;71.60;;;;;;5024351;28;20033;-87
2022/03/26 08:02:37;;;;;;;56.03;24.90;;;6.90;71.10;;;;;;5019155;28;20619;-86
2022/03/26 08:05:03;;;;;;;49.83;22.67;;;7.00;70.70;;;;;;5020871;28;20061;-86
2022/03/26 08:07:29;;;;;;;49.05;22.98;;;7.10;69.70;;;;;;5026743;28;20524;-86
2022/03/26 08:09:54;;;;;;;56.40;23.80;;;7.20;70.30;;;;;;5034852;28;20100;-86
2022/03/26 08:12:20;;;;;;;52.75;23.35;;;7.30;68.60;;;;;;5032713;28;20029;-86
2022/03/26 08:14:46;;;;;;;55.05;26.23;;;7.50;69.00;;;;;;5037253;28;20021;-85
2022/03/26 08:17:12;;;;;;;48.05;22.13;;;7.70;66.40;;;;;;5035238;28;20041;-85
2022/03/26 08:19:37;;;;;;;52.00;25.73;;;7.80;65.00;;;;;;5037931;28;20036;-83
2022/03/26 08:22:04;;;;;;;51.83;24.13;;;8.00;64.40;;;;;;5026848;28;20579;-87
2022/03/26 08:24:29;;;;;;;51.45;22.27;;;8.20;62.50;;;;;;5029968;28;20136;-82
2022/03/26 08:26:55;;;;;;;49.97;25.67;;;8.30;62.30;;;;;;5042912;28;20040;-84
2022/03/26 08:29:21;;;;;;;55.70;24.05;;;8.50;61.40;;;;;;5040784;28;20029;-80
2022/03/26 08:31:47;;;;;;;59.05;23.10;;;8.60;59.60;;;;;;5037218;28;20053;-85
2022/03/26 08:34:12;;;;;;;46.70;23.77;;;8.60;59.40;;;;;;5021018;28;20064;-82
2022/03/26 08:36:39;;;;;;;46.70;23.88;;;8.70;59.00;;;;;;5025493;28;20033;-84
2022/03/26 08:39:05;;;;;;;50.72;24.02;;;8.80;59.70;;;;;;5048051;28;20048;-86
2022/03/26 08:41:30;;;;;;;56.45;25.15;;;9.00;58.70;;;;;;5040343;28;20493;-84
2022/03/26 08:43:56;;;;;;;50.38;23.02;;;9.20;59.60;;;;;;5031751;28;20029;-85
2022/03/26 08:46:22;;;;;;;59.53;23.73;;;9.40;57.80;;;;;;5027325;28;20104;-85
2022/03/26 08:48:50;;;;;;;56.55;24.98;;;9.50;58.30;;;;;;5027082;28;20788;-85
2022/03/26 08:51:16;;;;;;;51.13;22.48;;;9.60;56.00;;;;;;5022747;28;20024;-87
2022/03/26 08:53:42;;;;;;;50.78;22.50;;;9.70;56.00;;;;;;5052117;28;20037;-86
2022/03/26 08:56:09;;;;;;;48.33;23.60;;;9.70;54.40;;;;;;5029245;28;21668;-86
2022/03/26 08:58:36;;;;;;;50.95;23.17;;;9.80;55.00;;;;;;5026119;28;20017;-83
2022/03/26 09:01:03;;;;;;;52.90;24.08;;;10.00;54.40;;;;;;5041034;28;20544;-87
2022/03/26 09:03:29;;;;;;;53.72;25.05;;;10.00;54.50;;;;;;5038276;28;20025;-85
2022/03/26 09:05:56;;;;;;;48.20;23.70;;;10.00;54.70;;;;;;5038670;28;20029;-86
2022/03/26 09:08:22;;;;;;;53.97;26.45;;;10.40;53.10;;;;;;5016100;28;20030;-85
2022/03/26 09:10:48;;;;;;;52.88;24.25;;;10.60;53.50;;;;;;5027080;28;20026;-86
2022/03/26 09:13:15;;;;;;;56.58;23.45;;;10.70;52.30;;;;;;5033642;28;20417;-86
2022/03/26 09:15:40;;;;;;;53.17;23.98;;;10.70;50.90;;;;;;5031279;28;20032;-86
2022/03/26 09:18:06;;;;;;;56.20;25.23;;;10.80;51.40;;;;;;5038851;28;20037;-86
2022/03/26 09:20:32;;;;;;;50.72;24.15;;;11.00;51.10;;;;;;5022781;28;20060;-85
2022/03/26 09:22:58;;;;;;;55.03;24.63;;;11.00;50.00;;;;;;5035628;28;20492;-84
2022/03/26 09:25:24;;;;;;;58.22;23.55;;;11.20;50.20;;;;;;5037511;28;20048;-84
2022/03/26 09:27:50;;;;;;;57.00;24.73;;;11.50;49.80;;;;;;5032250;28;20041;-84
2022/03/26 09:30:17;;;;;;;53.05;24.50;;;11.50;48.70;;;;;;5026490;28;20041;-83
2022/03/26 09:32:46;;;;;;;50.05;24.63;;;11.70;49.50;;;;;;5032465;28;20016;-85
2022/03/26 09:35:14;;;;;;;50.38;23.38;;;11.70;47.60;;;;;;5033949;28;20090;-84
2022/03/26 09:37:40;;;;;;;49.03;23.75;;;11.80;47.60;;;;;;5031672;28;20453;-84
2022/03/26 09:40:08;;;;;;;49.80;23.27;;;12.10;48.70;;;;;;5039785;28;20033;-84
2022/03/26 09:42:35;;;;;;;49.80;23.38;;;12.20;47.20;;;;;;5028848;28;20124;-84
2022/03/26 09:45:03;;;;;;;52.03;23.92;;;12.20;47.40;;;;;;5035004;28;20024;-82
2022/03/26 09:47:29;;;;;;;52.88;25.45;;;12.40;46.60;;;;;;5040511;28;20033;-83
2022/03/26 09:49:54;;;;;;;52.10;25.10;;;12.60;46.10;;;;;;5020278;28;20079;-84
2022/03/26 09:52:20;;;;;;;49.60;25.30;;;12.70;45.40;;;;;;5020986;28;20147;-83
2022/03/26 09:54:46;;;;;;;54.85;24.60;;;12.70;45.20;;;;;;5040219;28;20100;-83
2022/03/26 09:57:12;;;;;;;55.47;25.42;;;12.90;45.60;;;;;;5034577;28;20040;-83
2022/03/26 09:59:37;;;;;;;53.40;25.20;;;12.80;47.00;;;;;;5043770;28;20033;-83
2022/03/26 10:02:03;;;;;;;50.22;26.55;;;13.20;46.20;;;;;;5026275;28;20116;-82
2022/03/26 10:04:40;;;;;;;51.55;25.10;;;13.40;45.30;;;;;;5032117;28;20033;-82
2022/03/26 10:07:07;;;;;;;56.55;26.23;;;13.40;42.10;;;;;;5031981;28;20090;-85
2022/03/26 10:09:46;;;;;;;53.00;26.95;;;13.60;43.30;;;;;;5036201;28;20106;-83
2022/03/26 10:12:29;;;;;;;58.28;26.52;;;13.50;44.00;;;;;;5036720;28;20116;-85
2022/03/26 10:15:04;;;;;;;56.70;25.45;;;13.70;44.20;;;;;;5042907;28;20017;-85
2022/03/26 10:17:31;;;;;;;57.88;25.85;;;13.80;42.40;;;;;;5035707;28;20033;-85
2022/03/26 10:20:05;;;;;;;57.85;27.75;;;13.70;43.80;;;;;;5030306;28;20025;-85
2022/03/26 10:22:38;;;;;;;53.85;26.02;;;13.70;43.30;;;;;;5033982;28;20032;-84
2022/03/26 10:25:04;;;;;;;55.45;25.38;;;13.90;43.00;;;;;;5032812;28;20084;-84
2022/03/26 10:27:40;;;;;;;53.75;23.80;;;14.20;42.30;;;;;;5037062;28;20437;-84
2022/03/26 10:30:06;;;;;;;55.80;25.33;;;14.20;42.50;;;;;;5029362;28;20021;-85
2022/03/26 10:32:45;;;;;;;56.20;26.00;;;14.40;41.80;;;;;;5032585;28;20473;-84
2022/03/26 10:35:16;;;;;;;56.55;27.13;;;14.30;40.80;;;;;;5046752;28;20042;-85
2022/03/26 10:37:45;;;;;;;51.08;25.17;;;14.20;41.10;;;;;;5028966;28;20021;-85
2022/03/26 10:40:22;;;;;;;58.22;27.02;;;14.30;41.80;;;;;;5025406;28;20040;-85
2022/03/26 10:42:55;;;;;;;55.63;26.75;;;14.20;41.40;;;;;;5023084;28;20056;-85
2022/03/26 10:45:21;;;;;;;61.22;28.40;;;14.30;41.10;;;;;;5048986;28;20068;-85
2022/03/26 10:47:54;;;;;;;49.83;26.17;;;14.40;39.10;;;;;;5031350;28;20025;-85
2022/03/26 10:50:19;;;;;;;60.40;27.98;;;14.80;38.30;;;;;;5028432;28;20037;-84
2022/03/26 10:52:45;;;;;;;56.83;25.65;;;15.10;37.90;;;;;;5037199;28;20157;-84
2022/03/26 10:55:18;;;;;;;54.05;26.58;;;15.40;37.00;;;;;;5031336;28;20056;-84
2022/03/26 10:57:47;;;;;;;54.80;25.70;;;15.50;36.10;;;;;;5023264;28;20049;-84
2022/03/26 11:00:14;;;;;;;56.80;27.02;;;15.90;35.40;;;;;;5031206;28;20366;-84
2022/03/26 11:02:41;;;;;;;56.38;27.25;;;16.20;34.60;;;;;;5034353;28;20018;-83
2022/03/26 11:05:08;;;;;;;56.90;28.55;;;16.30;34.70;;;;;;5031386;28;20025;-85
2022/03/26 11:07:36;;;;;;;53.40;28.75;;;16.90;33.40;;;;;;5025966;28;20033;-82
2022/03/26 11:10:07;;;;;;;57.95;29.92;;;16.90;32.30;;;;;;5027699;28;20022;-83
2022/03/26 11:12:35;;;;;;;54.35;28.38;;;16.70;32.50;;;;;;5031655;28;20113;-83
2022/03/26 11:15:06;;;;;;;60.72;30.15;;;16.80;32.20;;;;;;5040588;28;20078;-82
2022/03/26 11:17:56;;;;;;;54.03;29.10;;;16.90;33.00;;;;;;5033295;28;20058;-83
2022/03/26 11:20:50;;;;;;;57.25;31.45;;;17.20;31.70;;;;;;5033206;28;20025;-82
2022/03/26 11:23:19;;;;;;;57.20;29.88;;;17.10;31.20;;;;;;5046020;28;20028;-83
2022/03/26 11:26:14;;;;;;;59.13;29.65;;;17.40;31.00;;;;;;5034125;28;20037;-83
2022/03/26 11:28:49;;;;;;;55.20;29.17;;;17.30;30.80;;;;;;5036488;28;20075;-82
2022/03/26 11:31:24;;;;;;;56.72;29.48;;;17.50;30.30;;;;;;5035623;28;20037;-82
2022/03/26 11:34:03;;;;;;;58.40;29.80;;;18.00;30.00;;;;;;5034973;28;20021;-81
2022/03/26 11:36:29;;;;;;;55.08;28.35;;;18.60;29.30;;;;;;5036507;28;20025;-82
2022/03/26 11:39:07;;;;;;;58.88;30.92;;;18.40;29.30;;;;;;5031041;28;20055;-81
2022/03/26 11:41:33;;;;;;;49.83;27.58;;;18.50;29.30;;;;;;5032965;28;20117;-81
2022/03/26 11:44:01;;;;;;;58.60;30.20;;;18.10;28.30;;;;;;5032933;28;20038;-82
2022/03/26 11:52:15;;;;;;;58.65;30.73;;;19.20;28.20;;;;;;5034828;28;20047;-82
2022/03/26 11:54:40;;;;;;;59.83;30.75;;;19.00;27.90;;;;;;5031769;28;20052;-83
2022/03/26 11:57:08;;;;;;;58.45;30.02;;;19.40;28.30;;;;;;5036665;28;20453;-83
2022/03/26 11:59:39;;;;;;;58.67;31.75;;;19.60;27.30;;;;;;5039340;28;20025;-83
2022/03/26 12:02:24;;;;;;;59.03;31.02;;;19.40;28.10;;;;;;5042278;28;20064;-82
2022/03/26 12:04:53;;;;;;;64.38;31.95;;;19.40;27.10;;;;;;5032243;28;20025;-82
2022/03/26 12:07:21;;;;;;;57.58;30.27;;;19.60;28.20;;;;;;5038740;28;20078;-82
2022/03/26 12:10:03;;;;;;;56.55;31.92;;;20.20;27.20;;;;;;5038293;28;20488;-82
2022/03/26 12:12:58;;;;;;;68.68;31.42;;;20.40;26.70;;;;;;5029658;28;20572;-83
2022/03/26 12:15:26;;;;;;;59.53;31.75;;;20.80;25.80;;;;;;5024294;28;20598;-83
2022/03/26 12:18:13;;;;;;;52.28;28.67;;;20.80;26.10;;;;;;5027756;28;20507;-83
2022/03/26 12:20:42;;;;;;;53.75;30.08;;;20.60;25.30;;;;;;5022273;28;20031;-83
2022/03/26 12:23:28;;;;;;;55.83;30.63;;;20.30;25.90;;;;;;5031100;28;20045;-83
2022/03/26 12:26:01;;;;;;;54.50;29.13;;;20.80;25.70;;;;;;5030147;28;20492;-80
2022/03/26 12:28:31;;;;;;;55.08;30.23;;;20.20;25.70;;;;;;5029392;28;20037;-83
2022/03/26 12:31:05;;;;;;;53.65;30.70;;;20.90;25.20;;;;;;5023582;28;20104;-83
2022/03/26 12:33:41;;;;;;;50.88;29.27;;;21.30;24.30;;;;;;5020612;28;20648;-83
2022/03/26 12:36:08;;;;;;;54.58;30.85;;;20.90;25.60;;;;;;5039684;28;20476;-82
2022/03/26 12:38:34;;;;;;;53.83;31.55;;;21.10;25.30;;;;;;5026898;28;20034;-83
2022/03/26 12:41:02;;;;;;;50.90;30.15;;;21.70;25.30;;;;;;5038591;28;20112;-82
2022/03/26 12:43:28;;;;;;;54.45;31.05;;;22.20;25.70;;;;;;5029517;28;20377;-82